createdAt,value
2018-12-18T00:01:09.947Z,-5.26
2018-12-18T00:03:41.808Z,-5.09
2018-12-18T00:06:13.812Z,-5.02
2018-12-18T00:08:45.937Z,-4.99
2018-12-18T00:11:19.031Z,-4.99
2018-12-18T00:13:51.048Z,-4.90
2018-12-18T00:16:23.125Z,-4.88
2018-12-18T00:18:55.087Z,-4.86
2018-12-18T00:21:27.021Z,-5.04
2018-12-18T00:23:58.988Z,-4.98
2018-12-18T00:26:30.890Z,-4.98
2018-12-18T00:29:03.602Z,-4.87
2018-12-18T00:31:37.394Z,-4.89
2018-12-18T00:34:09.228Z,-4.80
2018-12-18T00:36:41.125Z,-4.80
2018-12-18T00:39:13.099Z,-4.95
2018-12-18T00:41:44.998Z,-4.93
2018-12-18T00:44:17.000Z,-4.92
2018-12-18T00:46:48.988Z,-4.78
2018-12-18T00:49:20.952Z,-4.71
2018-12-18T00:51:52.907Z,-4.75
2018-12-18T00:54:24.968Z,-4.64
2018-12-18T00:56:57.015Z,-4.55
2018-12-18T00:59:28.922Z,-4.49
2018-12-18T01:02:01.019Z,-4.53
2018-12-18T01:04:32.986Z,-4.50
2018-12-18T01:07:04.987Z,-4.46
2018-12-18T01:09:37.057Z,-4.24
2018-12-18T01:12:08.933Z,-4.32
2018-12-18T01:14:40.837Z,-4.15
2018-12-18T01:17:12.901Z,-4.46
2018-12-18T01:19:44.874Z,-4.32
2018-12-18T01:22:17.094Z,-4.35
2018-12-18T01:24:50.765Z,-4.17
2018-12-18T01:27:22.808Z,-4.24
2018-12-18T01:29:54.799Z,-4.15
2018-12-18T01:32:26.785Z,-3.91
2018-12-18T01:34:58.668Z,-3.89
2018-12-18T01:37:30.597Z,-4.02
2018-12-18T01:40:02.382Z,-3.95
2018-12-18T01:42:34.320Z,-3.84
2018-12-18T01:45:06.664Z,-3.94
2018-12-18T01:47:38.717Z,-3.92
2018-12-18T01:50:10.850Z,-3.79
2018-12-18T01:52:42.707Z,-4.00
2018-12-18T01:55:14.504Z,-3.71
2018-12-18T01:57:46.670Z,-3.62
2018-12-18T02:00:18.641Z,-3.48
2018-12-18T02:02:50.651Z,-3.62
2018-12-18T02:05:22.659Z,-3.58
2018-12-18T02:07:54.563Z,-3.49
2018-12-18T02:10:26.781Z,-3.55
2018-12-18T02:12:58.805Z,-3.60
2018-12-18T02:15:30.787Z,-3.68
2018-12-18T02:18:02.896Z,-3.84
2018-12-18T02:20:34.997Z,-3.86
2018-12-18T02:23:06.974Z,-3.91
2018-12-18T02:25:38.939Z,-3.86
2018-12-18T02:28:10.978Z,-3.72
2018-12-18T02:30:42.905Z,-3.49
2018-12-18T02:33:14.971Z,-3.41
2018-12-18T02:35:46.866Z,-3.34
2018-12-18T02:38:18.943Z,-3.13
2018-12-18T02:40:50.984Z,-2.95
2018-12-18T02:43:22.984Z,-2.80
2018-12-18T02:45:54.917Z,-2.57
2018-12-18T02:48:26.998Z,-2.88
2018-12-18T02:50:59.020Z,-3.33
2018-12-18T02:53:31.007Z,-3.15
2018-12-18T02:56:02.915Z,-2.84
2018-12-18T02:58:34.879Z,-2.83
2018-12-18T03:01:06.622Z,-2.52
2018-12-18T03:03:38.763Z,-2.35
2018-12-18T03:06:10.853Z,-2.31
2018-12-18T03:08:43.065Z,-2.56
2018-12-18T03:11:15.322Z,-2.59
2018-12-18T03:13:48.584Z,-1.86
2018-12-18T03:16:21.281Z,-2.22
2018-12-18T03:18:53.239Z,-2.52
2018-12-18T03:21:25.299Z,-2.53
2018-12-18T03:24:00.712Z,-2.60
2018-12-18T03:26:34.785Z,-2.64
2018-12-18T03:29:07.652Z,-2.68
2018-12-18T03:31:40.438Z,-2.49
2018-12-18T03:34:14.264Z,-2.10
2018-12-18T03:36:47.395Z,-1.93
2018-12-18T03:39:21.625Z,-2.35
2018-12-18T03:41:54.655Z,-2.32
2018-12-18T03:44:27.645Z,-2.51
2018-12-18T03:47:00.433Z,-2.48
2018-12-18T03:49:32.953Z,-2.25
2018-12-18T03:52:05.035Z,-2.34
2018-12-18T03:54:37.280Z,-2.17
2018-12-18T03:57:09.179Z,-2.12
2018-12-18T03:59:41.111Z,-2.22
2018-12-18T04:02:12.911Z,-2.09
2018-12-18T04:04:44.891Z,-2.01
2018-12-18T04:07:16.768Z,-2.03
2018-12-18T04:09:48.729Z,-1.82
2018-12-18T04:12:20.704Z,-1.85
2018-12-18T04:14:53.000Z,-2.00
2018-12-18T04:17:25.040Z,-1.84
2018-12-18T04:19:57.061Z,-1.88
2018-12-18T04:22:29.220Z,-1.76
2018-12-18T04:25:01.028Z,-2.07
2018-12-18T04:27:33.028Z,-1.98
2018-12-18T04:30:05.769Z,-1.91
2018-12-18T04:32:37.945Z,-1.69
2018-12-18T04:35:10.002Z,-2.00
2018-12-18T04:37:42.100Z,-1.89
2018-12-18T04:40:14.177Z,-2.14
2018-12-18T04:42:46.280Z,-2.24
2018-12-18T04:45:18.280Z,-1.92
2018-12-18T04:47:50.333Z,-1.65
2018-12-18T04:50:22.258Z,-1.34
2018-12-18T04:52:54.281Z,-1.32
2018-12-18T04:55:26.545Z,-1.34
2018-12-18T04:57:58.480Z,-1.85
2018-12-18T05:00:30.543Z,-1.93
2018-12-18T05:03:08.751Z,-1.91
2018-12-18T05:05:45.274Z,-1.85
2018-12-18T05:08:17.180Z,-1.79
2018-12-18T05:10:52.898Z,-1.70
2018-12-18T05:13:25.437Z,-1.84
2018-12-18T05:15:58.564Z,-2.13
2018-12-18T05:18:30.758Z,-2.23
2018-12-18T05:21:03.705Z,-2.30
2018-12-18T05:23:35.995Z,-2.24
2018-12-18T05:26:08.183Z,-2.17
2018-12-18T05:28:40.499Z,-2.05
2018-12-18T05:31:12.759Z,-2.13
2018-12-18T05:33:45.136Z,-1.98
2018-12-18T05:36:17.910Z,-2.10
2018-12-18T05:38:50.044Z,-2.05
2018-12-18T05:41:23.163Z,-2.31
2018-12-18T05:43:54.937Z,-2.47
2018-12-18T05:46:27.194Z,-2.27
2018-12-18T05:48:59.089Z,-2.08
2018-12-18T05:51:31.015Z,-2.18
2018-12-18T05:54:03.356Z,-2.24
2018-12-18T05:56:35.163Z,-2.19
2018-12-18T05:59:07.938Z,-2.17
2018-12-18T06:01:39.921Z,-2.22
2018-12-18T06:04:11.997Z,-2.34
2018-12-18T06:06:43.970Z,-2.42
2018-12-18T06:09:15.831Z,-2.46
2018-12-18T06:11:47.799Z,-2.44
2018-12-18T06:14:19.594Z,-2.42
2018-12-18T06:16:51.641Z,-2.47
2018-12-18T06:19:23.543Z,-2.58
2018-12-18T06:21:55.498Z,-2.65
2018-12-18T06:27:02.660Z,-2.75
2018-12-18T06:29:34.676Z,-2.74
2018-12-18T06:32:06.656Z,-2.81
2018-12-18T06:34:38.706Z,-2.87
2018-12-18T06:37:10.773Z,-2.64
2018-12-18T06:39:42.659Z,-2.69
2018-12-18T06:42:14.571Z,-2.76
2018-12-18T06:44:46.578Z,-2.61
2018-12-18T06:49:54.735Z,-2.87
2018-12-18T06:52:27.914Z,-2.84
2018-12-18T06:55:00.984Z,-2.87
2018-12-18T06:57:33.934Z,-2.82
2018-12-18T07:00:09.311Z,-2.76
2018-12-18T07:02:42.119Z,-2.88
2018-12-18T07:05:16.900Z,-2.86
2018-12-18T07:08:04.916Z,-2.85
2018-12-18T07:14:11.517Z,-2.97
2018-12-18T07:16:43.443Z,-2.95
2018-12-18T07:19:15.478Z,-2.86
2018-12-18T07:21:47.341Z,-2.91
2018-12-18T07:24:19.310Z,-2.99
2018-12-18T07:26:51.121Z,-3.02
2018-12-18T07:29:23.255Z,-3.13
2018-12-18T07:31:55.158Z,-2.95
2018-12-18T07:34:33.258Z,-3.06
2018-12-18T07:37:01.597Z,-3.01
2018-12-18T07:39:33.697Z,-3.05
2018-12-18T07:42:05.653Z,-3.11
2018-12-18T07:44:37.419Z,-3.32
2018-12-18T07:47:09.338Z,-3.16
2018-12-18T07:49:41.486Z,-3.22
2018-12-18T07:52:13.534Z,-3.17
2018-12-18T07:54:51.547Z,-3.09
2018-12-18T07:57:29.781Z,-3.40
2018-12-18T08:00:01.622Z,-3.53
2018-12-18T08:02:33.601Z,-3.36
2018-12-18T08:05:05.804Z,-3.32
2018-12-18T08:07:38.243Z,-3.30
2018-12-18T08:10:10.463Z,-3.44
2018-12-18T08:12:42.520Z,-3.42
2018-12-18T08:15:14.416Z,-3.54
2018-12-18T08:17:46.453Z,-3.42
2018-12-18T08:20:18.258Z,-3.46
2018-12-18T08:22:50.207Z,-3.51
2018-12-18T08:25:22.152Z,-3.43
2018-12-18T08:27:55.079Z,-3.43
2018-12-18T08:30:26.958Z,-3.45
2018-12-18T08:32:58.866Z,-3.34
2018-12-18T08:35:36.290Z,-3.32
2018-12-18T08:38:05.185Z,-3.32
2018-12-18T08:40:37.203Z,-3.49
2018-12-18T08:43:09.175Z,-3.67
2018-12-18T08:45:41.200Z,-3.66
2018-12-18T08:48:13.069Z,-3.78
2018-12-18T08:51:00.566Z,-3.50
2018-12-18T08:53:32.665Z,-3.56
2018-12-18T08:56:04.772Z,-3.57
2018-12-18T08:58:36.848Z,-3.64
2018-12-18T09:01:08.853Z,-3.69
2018-12-18T09:03:40.918Z,-3.62
2018-12-18T09:06:12.890Z,-3.77
2018-12-18T09:08:44.896Z,-3.74
2018-12-18T09:11:17.097Z,-3.81
2018-12-18T09:13:49.054Z,-3.74
2018-12-18T09:16:20.921Z,-3.72
2018-12-18T09:18:52.872Z,-3.71
2018-12-18T09:21:24.745Z,-3.69
2018-12-18T09:23:56.723Z,-3.81
2018-12-18T09:26:28.748Z,-3.91
2018-12-18T09:29:00.663Z,-3.81
2018-12-18T09:31:32.711Z,-3.70
2018-12-18T09:34:04.888Z,-3.84
2018-12-18T09:36:36.823Z,-3.73
2018-12-18T09:39:09.455Z,-3.74
2018-12-18T09:41:41.634Z,-3.86
2018-12-18T09:44:13.520Z,-3.88
2018-12-18T09:46:45.588Z,-3.87
2018-12-18T09:49:17.554Z,-3.90
2018-12-18T09:51:49.456Z,-3.79
2018-12-18T09:54:21.581Z,-3.91
2018-12-18T09:56:53.476Z,-4.04
2018-12-18T09:59:25.408Z,-3.90
2018-12-18T10:01:58.263Z,-3.89
2018-12-18T10:04:30.653Z,-3.90
2018-12-18T10:07:02.551Z,-3.91
2018-12-18T10:09:34.557Z,-4.01
2018-12-18T10:12:06.451Z,-3.95
2018-12-18T10:14:38.259Z,-4.00
2018-12-18T10:17:10.096Z,-4.11
2018-12-18T10:19:42.313Z,-4.21
2018-12-18T10:22:15.470Z,-4.14
2018-12-18T10:24:47.684Z,-4.02
2018-12-18T10:27:19.684Z,-3.98
2018-12-18T10:29:51.796Z,-4.08
2018-12-18T10:32:23.739Z,-4.15
2018-12-18T10:34:55.827Z,-4.09
2018-12-18T10:37:27.837Z,-4.16
2018-12-18T10:39:59.953Z,-3.97
2018-12-18T10:42:32.223Z,-3.93
2018-12-18T10:45:04.872Z,-3.81
2018-12-18T10:47:36.841Z,-3.88
2018-12-18T10:50:08.807Z,-3.76
2018-12-18T10:52:40.751Z,-3.65
2018-12-18T10:55:12.682Z,-3.66
2018-12-18T10:57:44.523Z,-3.68
2018-12-18T11:00:16.642Z,-3.60
2018-12-18T11:02:48.586Z,-3.54
2018-12-18T11:05:20.606Z,-3.49
2018-12-18T11:07:52.593Z,-3.49
2018-12-18T11:10:26.403Z,-3.45
2018-12-18T11:12:58.512Z,-3.55
2018-12-18T11:15:30.540Z,-3.55
2018-12-18T11:18:02.240Z,-3.56
2018-12-18T11:20:34.161Z,-3.55
2018-12-18T11:23:06.092Z,-3.55
2018-12-18T11:25:38.325Z,-3.54
2018-12-18T11:28:10.315Z,-3.56
2018-12-18T11:30:42.270Z,-3.68
2018-12-18T11:33:14.939Z,-3.73
2018-12-18T11:35:46.883Z,-3.64
2018-12-18T11:38:18.849Z,-3.73
2018-12-18T11:40:50.833Z,-3.71
2018-12-18T11:43:23.183Z,-3.64
2018-12-18T11:45:56.058Z,-3.71
2018-12-18T11:48:28.095Z,-3.73
2018-12-18T11:51:00.081Z,-3.67
2018-12-18T11:53:32.565Z,-3.65
2018-12-18T11:56:05.299Z,-3.73
2018-12-18T11:58:37.331Z,-3.70
2018-12-18T12:01:09.273Z,-3.77
2018-12-18T12:03:41.230Z,-3.66
2018-12-18T12:06:13.323Z,-3.61
2018-12-18T12:08:46.110Z,-3.62
2018-12-18T12:11:19.431Z,-3.54
2018-12-18T12:13:52.031Z,-3.57
2018-12-18T12:16:25.692Z,-3.57
2018-12-18T12:18:57.799Z,-3.67
2018-12-18T12:21:29.812Z,-3.65
2018-12-18T12:24:02.187Z,-3.50
2018-12-18T12:26:35.231Z,-3.44
2018-12-18T12:29:08.749Z,-3.67
2018-12-18T12:31:41.435Z,-3.72
2018-12-18T12:34:14.310Z,-3.57
2018-12-18T12:36:47.447Z,-3.56
2018-12-18T12:39:21.070Z,-3.64
2018-12-18T12:41:54.738Z,-3.64
2018-12-18T12:44:27.491Z,-3.79
2018-12-18T12:47:00.100Z,-3.80
2018-12-18T12:49:33.656Z,-3.89
2018-12-18T12:52:06.883Z,-3.70
2018-12-18T12:54:40.231Z,-3.89
2018-12-18T12:57:13.572Z,-3.88
2018-12-18T12:59:46.105Z,-3.77
2018-12-18T13:02:18.868Z,-3.75
2018-12-18T13:04:52.094Z,-3.76
2018-12-18T13:07:26.496Z,-3.86
2018-12-18T13:09:59.353Z,-3.74
2018-12-18T13:12:32.346Z,-3.79
2018-12-18T13:15:04.487Z,-3.79
2018-12-18T13:17:37.538Z,-3.91
2018-12-18T13:20:10.751Z,-3.85
2018-12-18T13:22:44.098Z,-3.74
2018-12-18T13:25:17.655Z,-3.64
2018-12-18T13:27:51.403Z,-3.72
2018-12-18T13:30:24.921Z,-3.78
2018-12-18T13:32:57.806Z,-3.71
2018-12-18T13:35:31.382Z,-3.68
2018-12-18T13:38:04.696Z,-3.78
2018-12-18T13:40:37.055Z,-3.89
2018-12-18T13:43:10.369Z,-3.95
2018-12-18T13:45:44.592Z,-3.95
2018-12-18T13:48:17.017Z,-3.93
2018-12-18T13:50:49.232Z,-4.01
2018-12-18T13:53:21.876Z,-3.94
2018-12-18T13:55:54.404Z,-3.99
2018-12-18T13:58:26.504Z,-3.97
2018-12-18T14:01:00.084Z,-4.02
2018-12-18T14:03:33.034Z,-4.10
2018-12-18T14:06:05.557Z,-3.96
2018-12-18T14:08:37.604Z,-3.93
2018-12-18T14:11:10.819Z,-3.93
2018-12-18T14:13:42.870Z,-3.86
2018-12-18T14:16:15.046Z,-3.86
2018-12-18T14:18:47.418Z,-3.88
2018-12-18T14:21:19.659Z,-3.84
2018-12-18T14:23:52.490Z,-3.83
2018-12-18T14:26:24.868Z,-3.79
2018-12-18T14:28:56.987Z,-3.94
2018-12-18T14:31:29.633Z,-3.94
2018-12-18T14:34:01.882Z,-3.80
2018-12-18T14:36:34.170Z,-3.86
2018-12-18T14:39:07.667Z,-3.82
2018-12-18T14:41:39.807Z,-3.93
2018-12-18T14:44:11.643Z,-3.81
2018-12-18T14:46:43.416Z,-3.78
2018-12-18T14:49:16.070Z,-3.75
2018-12-18T14:51:49.065Z,-3.83
2018-12-18T14:54:21.116Z,-3.96
2018-12-18T14:56:53.036Z,-3.96
2018-12-18T14:59:25.064Z,-3.93
2018-12-18T15:01:57.128Z,-3.95
2018-12-18T15:04:29.208Z,-3.92
2018-12-18T15:07:03.041Z,-3.83
2018-12-18T15:09:35.243Z,-3.93
2018-12-18T15:12:07.354Z,-3.84
2018-12-18T15:14:39.240Z,-3.91
2018-12-18T15:17:11.151Z,-3.95
2018-12-18T15:19:43.201Z,-3.83
2018-12-18T15:22:15.147Z,-3.68
2018-12-18T15:24:47.111Z,-3.75
2018-12-18T15:27:19.128Z,-3.80
2018-12-18T15:29:51.076Z,-3.82
2018-12-18T15:32:23.081Z,-3.81
2018-12-18T15:34:55.031Z,-3.74
2018-12-18T15:37:27.069Z,-3.74
2018-12-18T15:39:59.097Z,-3.62
2018-12-18T15:42:31.180Z,-3.61
2018-12-18T15:45:03.240Z,-3.60
2018-12-18T15:47:35.295Z,-3.57
2018-12-18T15:50:08.130Z,-3.61
2018-12-18T15:52:40.930Z,-3.58
2018-12-18T15:55:13.117Z,-3.52
2018-12-18T15:57:45.945Z,-3.55
2018-12-18T16:00:17.912Z,-3.49
2018-12-18T16:02:49.980Z,-3.49
2018-12-18T16:05:22.100Z,-3.46
2018-12-18T16:07:54.078Z,-3.45
2018-12-18T16:10:26.033Z,-3.51
2018-12-18T16:12:58.323Z,-3.49
2018-12-18T16:15:30.352Z,-3.53
2018-12-18T16:18:02.440Z,-3.50
2018-12-18T16:20:34.438Z,-3.53
2018-12-18T16:23:06.454Z,-3.49
2018-12-18T16:25:38.448Z,-3.59
2018-12-18T16:28:10.609Z,-3.68
2018-12-18T16:30:42.765Z,-3.66
2018-12-18T16:33:14.775Z,-3.65
2018-12-18T16:35:46.838Z,-3.65
2018-12-18T16:38:18.808Z,-3.58
2018-12-18T16:40:50.701Z,-3.59
2018-12-18T16:43:22.642Z,-3.66
2018-12-18T16:45:54.748Z,-3.67
2018-12-18T16:48:27.283Z,-3.78
2018-12-18T16:50:59.316Z,-3.78
2018-12-18T16:53:31.234Z,-3.82
2018-12-18T16:56:03.418Z,-3.83
2018-12-18T16:58:35.722Z,-3.80
2018-12-18T17:01:08.009Z,-3.86
2018-12-18T17:03:40.174Z,-3.79
2018-12-18T17:06:12.343Z,-3.75
2018-12-18T17:08:44.404Z,-3.73
2018-12-18T17:11:17.205Z,-3.66
2018-12-18T17:13:49.241Z,-3.67
2018-12-18T17:16:21.431Z,-3.69
2018-12-18T17:18:53.311Z,-3.72
2018-12-18T17:21:25.430Z,-3.70
2018-12-18T17:23:57.527Z,-3.80
2018-12-18T17:26:29.359Z,-3.80
2018-12-18T17:29:01.419Z,-3.80
2018-12-18T17:31:33.322Z,-3.78
2018-12-18T17:34:05.308Z,-3.78
2018-12-18T17:36:38.008Z,-3.76
2018-12-18T17:39:10.659Z,-3.78
2018-12-18T17:41:42.822Z,-3.74
2018-12-18T17:44:15.333Z,-3.78
2018-12-18T17:46:47.315Z,-3.78
2018-12-18T17:49:19.438Z,-3.81
2018-12-18T17:51:51.510Z,-3.83
2018-12-18T17:54:23.800Z,-3.78
2018-12-18T17:56:55.672Z,-3.84
2018-12-18T17:59:27.657Z,-3.71
2018-12-18T18:01:59.676Z,-3.82
2018-12-18T18:04:31.760Z,-3.84
2018-12-18T18:07:03.788Z,-3.81
2018-12-18T18:09:35.832Z,-3.88
2018-12-18T18:12:07.860Z,-3.89
2018-12-18T18:14:39.859Z,-3.90
2018-12-18T18:17:11.597Z,-3.88
2018-12-18T18:19:43.665Z,-3.88
2018-12-18T18:22:15.537Z,-3.90
2018-12-18T18:24:47.431Z,-3.92
2018-12-18T18:27:19.381Z,-3.94
2018-12-18T18:29:51.229Z,-3.87
2018-12-18T18:32:23.201Z,-3.86
2018-12-18T18:34:55.221Z,-3.94
2018-12-18T18:37:27.131Z,-3.97
2018-12-18T18:39:59.261Z,-3.90
2018-12-18T18:42:31.278Z,-3.92
2018-12-18T18:45:03.172Z,-4.10
2018-12-18T18:47:35.279Z,-4.13
2018-12-18T18:50:08.481Z,-4.08
2018-12-18T18:52:40.483Z,-4.09
2018-12-18T18:55:12.446Z,-4.05
2018-12-18T18:57:44.307Z,-4.10
2018-12-18T19:00:15.981Z,-4.16
2018-12-18T19:02:48.021Z,-4.05
2018-12-18T19:05:20.066Z,-3.91
2018-12-18T19:07:56.422Z,-4.10
2018-12-18T19:10:26.433Z,-4.18
2018-12-18T19:12:58.290Z,-4.25
2018-12-18T19:15:30.292Z,-4.13
2018-12-18T19:18:02.211Z,-4.08
2018-12-18T19:20:34.353Z,-4.19
2018-12-18T19:23:06.186Z,-4.15
2018-12-18T19:25:38.086Z,-4.28
2018-12-18T19:28:10.016Z,-4.35
2018-12-18T19:30:41.869Z,-4.26
2018-12-18T19:33:13.817Z,-4.23
2018-12-18T19:35:45.695Z,-4.20
2018-12-18T19:38:17.791Z,-4.04
2018-12-18T19:40:49.453Z,-4.14
2018-12-18T19:43:21.570Z,-4.33
2018-12-18T19:45:53.714Z,-4.30
2018-12-18T19:48:25.743Z,-4.38
2018-12-18T19:50:57.600Z,-4.30
2018-12-18T19:53:29.623Z,-4.28
2018-12-18T19:56:01.557Z,-4.24
2018-12-18T19:58:33.572Z,-4.36
2018-12-18T20:01:05.586Z,-4.40
2018-12-18T20:03:37.622Z,-4.38
2018-12-18T20:06:09.555Z,-4.35
2018-12-18T20:08:41.583Z,-4.35
2018-12-18T20:11:13.546Z,-4.26
2018-12-18T20:13:45.516Z,-4.30
2018-12-18T20:16:17.439Z,-4.26
2018-12-18T20:18:49.280Z,-4.33
2018-12-18T20:21:21.185Z,-4.29
2018-12-18T20:23:53.343Z,-4.26
2018-12-18T20:26:25.166Z,-4.21
2018-12-18T20:28:57.094Z,-4.38
2018-12-18T20:31:29.360Z,-4.25
2018-12-18T20:34:01.637Z,-4.35
2018-12-18T20:36:33.783Z,-4.40
2018-12-18T20:39:07.891Z,-4.44
2018-12-18T20:41:40.067Z,-4.48
2018-12-18T20:44:12.136Z,-4.47
2018-12-18T20:46:44.278Z,-4.46
2018-12-18T20:49:16.253Z,-4.45
2018-12-18T20:51:48.072Z,-4.43
2018-12-18T20:54:20.125Z,-4.37
2018-12-18T20:56:52.335Z,-4.39
2018-12-18T20:59:24.307Z,-4.33
2018-12-18T21:01:56.466Z,-4.27
2018-12-18T21:04:28.522Z,-4.29
2018-12-18T21:07:00.544Z,-4.32
2018-12-18T21:09:32.413Z,-4.49
2018-12-18T21:12:04.419Z,-4.61
2018-12-18T21:14:38.070Z,-4.59
2018-12-18T21:17:10.180Z,-4.56
2018-12-18T21:19:42.158Z,-4.57
2018-12-18T21:22:14.050Z,-4.46
2018-12-18T21:24:46.282Z,-4.52
2018-12-18T21:27:18.604Z,-4.59
2018-12-18T21:29:50.725Z,-4.74
2018-12-18T21:32:22.674Z,-4.74
2018-12-18T21:34:54.713Z,-4.81
2018-12-18T21:37:26.740Z,-4.76
2018-12-18T21:39:58.822Z,-4.66
2018-12-18T21:42:31.088Z,-4.73
2018-12-18T21:45:03.171Z,-4.83
2018-12-18T21:47:35.196Z,-4.81
2018-12-18T21:50:07.755Z,-4.84
2018-12-18T21:52:39.782Z,-4.90
2018-12-18T21:55:11.650Z,-4.89
2018-12-18T21:57:43.544Z,-4.98
2018-12-18T22:00:15.502Z,-4.98
2018-12-18T22:02:47.495Z,-5.04
2018-12-18T22:05:19.194Z,-4.94
2018-12-18T22:07:51.122Z,-4.96
2018-12-18T22:10:23.055Z,-4.95
2018-12-18T22:12:55.057Z,-4.87
2018-12-18T22:15:27.063Z,-4.92
2018-12-18T22:17:59.074Z,-5.07
2018-12-18T22:20:30.952Z,-5.12
2018-12-18T22:23:02.938Z,-5.12
2018-12-18T22:25:35.072Z,-5.17
2018-12-18T22:28:07.027Z,-5.20
2018-12-18T22:30:38.990Z,-5.14
2018-12-18T22:33:11.054Z,-5.09
2018-12-18T22:35:43.207Z,-5.20
2018-12-18T22:38:15.124Z,-5.13
2018-12-18T22:40:46.968Z,-5.18
2018-12-18T22:43:18.819Z,-5.15
2018-12-18T22:45:51.106Z,-5.09
2018-12-18T22:48:22.989Z,-5.06
2018-12-18T22:50:55.127Z,-5.07
2018-12-18T22:53:27.136Z,-4.97
2018-12-18T22:55:59.016Z,-5.03
2018-12-18T22:58:30.948Z,-5.19
2018-12-18T23:01:04.019Z,-5.14
2018-12-18T23:03:35.998Z,-5.28
2018-12-18T23:06:08.048Z,-5.38
2018-12-18T23:08:40.270Z,-5.17
2018-12-18T23:11:12.263Z,-5.31
2018-12-18T23:13:44.241Z,-5.33
2018-12-18T23:16:16.919Z,-5.45
2018-12-18T23:18:48.708Z,-5.43
2018-12-18T23:21:20.785Z,-5.43
2018-12-18T23:23:52.468Z,-5.45
2018-12-18T23:26:24.222Z,-5.32
2018-12-18T23:28:56.125Z,-5.38
2018-12-18T23:31:28.004Z,-5.38
2018-12-18T23:34:00.022Z,-5.31
2018-12-18T23:36:32.095Z,-5.24
2018-12-18T23:39:04.469Z,-5.16
2018-12-18T23:41:36.815Z,-5.20
2018-12-18T23:44:08.930Z,-5.19
2018-12-18T23:46:40.926Z,-5.25
2018-12-18T23:49:12.951Z,-5.28
2018-12-18T23:51:44.997Z,-5.25
2018-12-18T23:54:16.999Z,-5.19
2018-12-18T23:56:49.979Z,-5.17
2018-12-18T23:59:22.911Z,-4.95
